Home   Weather   Austria   Graz   Past weeks
Flag for Austria

Past Weather in Graz, Styria, Austria — Yesterday and Last 2 Weeks

Currently: 43 °F. Passing clouds. (Weather station: Graz-Thalerhof-Flughafen, Austria). See more current weather

Past Weather in Graz — Graph

°F

Graz Temperature Yesterday

Maximum temperature yesterday: 48 °F (at 1:50 pm)
Minimum temperature yesterday: 32 °F (at 11:50 pm)
Average temperature yesterday: 41 °F

High & Low Weather Summary for the Past Weeks

 TemperatureHumidityPressure
High79 °F (Apr 1, 4:50 pm)100% (Apr 3, 4:20 am)30.33 "Hg (Apr 3, 4:20 am)
Low19 °F (Apr 8, 4:50 am)18% (Apr 1, 4:20 pm)29.53 "Hg (Apr 5, 7:20 pm)
Average45 °F59%30.03 "Hg
* Reported Mar 31 9:20 am — Apr 15 9:20 am, Graz. Weather by CustomWeather, © 2021

Note: Actual official high and low records may vary slightly from our data, if they occured in-between our weather recording intervals... More about our weather records

Graz Weather History for the Previous 24 Hours

Scroll right to see more
 ConditionsComfort  
Time TempWeatherWind HumidityBarometerVisibility
9:20 am
Thu, Apr 15
41 °FPassing clouds.2 mph57%30.21 "HgN/A
8:50 am37 °FPassing clouds.2 mph70%30.21 "HgN/A
8:20 am34 °FPassing clouds.2 mph75%30.21 "HgN/A
7:50 am32 °FPassing clouds.2 mph80%30.21 "HgN/A
7:20 am30 °FPassing clouds.1 mph80%30.21 "HgN/A
6:50 am27 °FPassing clouds.1 mph86%30.21 "HgN/A
6:20 am23 °FPassing clouds.1 mph86%30.18 "HgN/A
5:50 am27 °FClear.1 mph86%30.18 "Hg10 mi
5:20 am23 °FCold.1 mph86%30.18 "HgN/A
4:50 am27 °FChilly.1 mph86%30.21 "HgN/A
4:20 am27 °FChilly.1 mph86%30.21 "HgN/A
3:50 am27 °FChilly.1 mph80%30.21 "HgN/A
3:20 am28 °FChilly.1 mph80%30.21 "HgN/A
2:50 am28 °FChilly.1 mph80%30.21 "HgN/A
2:20 am32 °FChilly.5 mph69%30.21 "HgN/A
1:50 am34 °FChilly.5 mph65%30.21 "HgN/A
1:20 am30 °FChilly.1 mph75%30.21 "HgN/A
12:50 am30 °FChilly.2 mph75%30.21 "HgN/A
12:20 am34 °FChilly.5 mph65%30.21 "HgN/A
11:50 pm
Wed, Apr 14
32 °FChilly.1 mph69%30.21 "HgN/A
11:20 pm36 °FChilly.3 mph65%30.21 "HgN/A
10:50 pm36 °FClear.2 mph65%30.21 "Hg10 mi
10:20 pm37 °FClear.2 mph56%30.21 "Hg10 mi
9:50 pm39 °FPassing clouds.3 mph56%30.21 "HgN/A
9:20 pm41 °FClear.7 mph49%30.21 "Hg10 mi
8:50 pm41 °FPassing clouds.12 mph45%30.21 "HgN/A
8:20 pm41 °FPassing clouds.10 mph45%30.18 "HgN/A
7:50 pm43 °FPassing clouds.14 mph39%30.18 "HgN/A
7:20 pm43 °FPassing clouds.12 mph39%30.18 "HgN/A
6:50 pm45 °FPassing clouds.14 mph39%30.15 "HgN/A
6:20 pm46 °FPassing clouds.16 mph34%30.15 "HgN/A
5:50 pm48 °FPassing clouds.18 mph32%30.15 "HgN/A
5:20 pm46 °FPassing clouds.14 mph34%30.15 "HgN/A
4:50 pm46 °FPassing clouds.17 mph37%30.15 "HgN/A
4:20 pm48 °FScattered clouds.16 mph37%30.15 "HgN/A
3:50 pm46 °FScattered clouds.18 mph37%30.15 "HgN/A
3:20 pm46 °FScattered clouds.14 mph40%30.15 "HgN/A
2:50 pm45 °FScattered clouds.12 mph46%30.15 "HgN/A
2:20 pm48 °FScattered clouds.12 mph40%30.15 "HgN/A
1:50 pm48 °FPassing clouds.16 mph40%30.18 "HgN/A
1:20 pm46 °FPassing clouds.16 mph40%30.18 "HgN/A
12:50 pm46 °FScattered clouds.15 mph46%30.18 "HgN/A
12:20 pm46 °FPassing clouds.21 mph46%30.18 "HgN/A
11:50 am46 °FScattered clouds.16 mph43%30.18 "HgN/A
11:20 am45 °FPassing clouds.18 mph46%30.18 "HgN/A
10:50 am45 °FScattered clouds.15 mph49%30.18 "HgN/A
10:20 am45 °FPassing clouds.13 mph49%30.18 "HgN/A
Weather by CustomWeather, © 2021

See weather overview